sensor_id;sensor_type;location;lat;lon;timestamp;pressure;altitude;pressure_sealevel;temperature;humidity
9521;BME280;4798;41.574;23.734;2023-05-20T00:01:24;95577.53;;;15.08;92.91
9521;BME280;4798;41.574;23.734;2023-05-20T00:03:52;95583.59;;;15.13;93.61
9521;BME280;4798;41.574;23.734;2023-05-20T00:06:21;95589.03;;;14.71;95.60
9521;BME280;4798;41.574;23.734;2023-05-20T00:08:51;95584.28;;;14.87;95.87
9521;BME280;4798;41.574;23.734;2023-05-20T00:11:19;95572.06;;;14.99;95.18
9521;BME280;4798;41.574;23.734;2023-05-20T00:13:47;95587.50;;;15.02;95.66
9521;BME280;4798;41.574;23.734;2023-05-20T00:16:16;95576.69;;;15.12;94.18
9521;BME280;4798;41.574;23.734;2023-05-20T00:18:44;95580.00;;;15.04;95.79
9521;BME280;4798;41.574;23.734;2023-05-20T00:21:13;95566.31;;;14.74;94.97
9521;BME280;4798;41.574;23.734;2023-05-20T00:23:41;95563.44;;;14.28;99.59
9521;BME280;4798;41.574;23.734;2023-05-20T00:26:11;95572.69;;;14.35;99.47
9521;BME280;4798;41.574;23.734;2023-05-20T00:28:39;95574.16;;;14.46;100.00
9521;BME280;4798;41.574;23.734;2023-05-20T00:31:08;95575.31;;;14.78;96.73
9521;BME280;4798;41.574;23.734;2023-05-20T00:33:36;95570.00;;;14.59;95.73
9521;BME280;4798;41.574;23.734;2023-05-20T00:36:05;95570.91;;;14.31;99.06
9521;BME280;4798;41.574;23.734;2023-05-20T00:38:33;95568.41;;;14.39;97.75
9521;BME280;4798;41.574;23.734;2023-05-20T00:41:02;95570.44;;;14.24;99.82
9521;BME280;4798;41.574;23.734;2023-05-20T00:43:31;95571.09;;;13.87;100.00
9521;BME280;4798;41.574;23.734;2023-05-20T00:46:00;95575.19;;;14.03;100.00
9521;BME280;4798;41.574;23.734;2023-05-20T00:48:34;95572.03;;;14.01;100.00
9521;BME280;4798;41.574;23.734;2023-05-20T00:51:04;95572.75;;;14.07;100.00
9521;BME280;4798;41.574;23.734;2023-05-20T00:53:34;95579.09;;;14.11;100.00
9521;BME280;4798;41.574;23.734;2023-05-20T00:56:04;95559.94;;;14.09;100.00
9521;BME280;4798;41.574;23.734;2023-05-20T00:58:34;95571.78;;;13.97;100.00
9521;BME280;4798;41.574;23.734;2023-05-20T01:01:04;95565.03;;;13.81;100.00
9521;BME280;4798;41.574;23.734;2023-05-20T01:03:33;95574.09;;;13.57;100.00
9521;BME280;4798;41.574;23.734;2023-05-20T01:06:01;95574.47;;;13.45;100.00
9521;BME280;4798;41.574;23.734;2023-05-20T01:08:30;95576.53;;;13.53;100.00
9521;BME280;4798;41.574;23.734;2023-05-20T01:11:03;95569.09;;;13.74;100.00
9521;BME280;4798;41.574;23.734;2023-05-20T01:13:39;95572.56;;;13.74;100.00
9521;BME280;4798;41.574;23.734;2023-05-20T01:16:12;95569.50;;;13.62;100.00
9521;BME280;4798;41.574;23.734;2023-05-20T01:18:42;95555.88;;;13.40;100.00
9521;BME280;4798;41.574;23.734;2023-05-20T01:21:12;95559.78;;;13.19;100.00
9521;BME280;4798;41.574;23.734;2023-05-20T01:23:43;95561.13;;;13.16;100.00
9521;BME280;4798;41.574;23.734;2023-05-20T01:26:12;95552.22;;;13.31;100.00
9521;BME280;4798;41.574;23.734;2023-05-20T01:28:41;95534.84;;;13.10;100.00
9521;BME280;4798;41.574;23.734;2023-05-20T01:31:14;95541.81;;;13.01;100.00
9521;BME280;4798;41.574;23.734;2023-05-20T01:33:49;95542.84;;;13.10;100.00
9521;BME280;4798;41.574;23.734;2023-05-20T01:36:19;95546.16;;;12.92;100.00
9521;BME280;4798;41.574;23.734;2023-05-20T01:38:50;95552.94;;;13.13;100.00
9521;BME280;4798;41.574;23.734;2023-05-20T01:41:19;95540.19;;;13.10;100.00
9521;BME280;4798;41.574;23.734;2023-05-20T01:43:48;95539.16;;;13.34;100.00
9521;BME280;4798;41.574;23.734;2023-05-20T01:46:17;95542.47;;;13.50;100.00
9521;BME280;4798;41.574;23.734;2023-05-20T01:48:45;95539.91;;;13.40;100.00
9521;BME280;4798;41.574;23.734;2023-05-20T01:51:13;95553.19;;;13.69;100.00
9521;BME280;4798;41.574;23.734;2023-05-20T01:53:42;95546.28;;;13.91;100.00
9521;BME280;4798;41.574;23.734;2023-05-20T01:56:12;95543.84;;;13.95;100.00
9521;BME280;4798;41.574;23.734;2023-05-20T01:58:40;95545.66;;;13.76;100.00
9521;BME280;4798;41.574;23.734;2023-05-20T02:01:08;95515.13;;;13.68;100.00
9521;BME280;4798;41.574;23.734;2023-05-20T02:03:37;95539.19;;;14.06;100.00
9521;BME280;4798;41.574;23.734;2023-05-20T02:06:05;95549.69;;;13.73;100.00
9521;BME280;4798;41.574;23.734;2023-05-20T02:08:34;95538.59;;;13.61;100.00
9521;BME280;4798;41.574;23.734;2023-05-20T02:11:02;95546.31;;;13.86;100.00
9521;BME280;4798;41.574;23.734;2023-05-20T02:13:32;95542.16;;;13.80;100.00
9521;BME280;4798;41.574;23.734;2023-05-20T02:16:00;95545.81;;;13.84;100.00
9521;BME280;4798;41.574;23.734;2023-05-20T02:18:29;95540.50;;;13.61;100.00
9521;BME280;4798;41.574;23.734;2023-05-20T02:21:01;95523.78;;;13.55;100.00
9521;BME280;4798;41.574;23.734;2023-05-20T02:23:30;95533.91;;;13.53;100.00
9521;BME280;4798;41.574;23.734;2023-05-20T02:25:59;95533.88;;;12.96;100.00
9521;BME280;4798;41.574;23.734;2023-05-20T02:28:27;95536.88;;;12.84;100.00
9521;BME280;4798;41.574;23.734;2023-05-20T02:30:57;95545.53;;;12.66;100.00
9521;BME280;4798;41.574;23.734;2023-05-20T02:33:25;95536.88;;;12.84;100.00
9521;BME280;4798;41.574;23.734;2023-05-20T02:35:55;95539.09;;;13.06;100.00
9521;BME280;4798;41.574;23.734;2023-05-20T02:38:23;95540.50;;;13.32;100.00
9521;BME280;4798;41.574;23.734;2023-05-20T02:40:52;95531.81;;;13.50;100.00
9521;BME280;4798;41.574;23.734;2023-05-20T02:43:20;95539.81;;;13.50;100.00
9521;BME280;4798;41.574;23.734;2023-05-20T02:45:49;95538.91;;;13.31;100.00
9521;BME280;4798;41.574;23.734;2023-05-20T02:48:18;95549.94;;;13.48;100.00
9521;BME280;4798;41.574;23.734;2023-05-20T02:50:47;95542.91;;;13.00;100.00
9521;BME280;4798;41.574;23.734;2023-05-20T02:53:15;95544.06;;;13.22;100.00
9521;BME280;4798;41.574;23.734;2023-05-20T02:55:45;95483.09;;;12.92;100.00
9521;BME280;4798;41.574;23.734;2023-05-20T02:58:15;95558.00;;;13.43;100.00
9521;BME280;4798;41.574;23.734;2023-05-20T03:00:43;95556.34;;;13.47;100.00
9521;BME280;4798;41.574;23.734;2023-05-20T03:03:11;95562.66;;;13.27;100.00
9521;BME280;4798;41.574;23.734;2023-05-20T03:05:42;95563.63;;;13.08;100.00
9521;BME280;4798;41.574;23.734;2023-05-20T03:08:11;95574.31;;;12.98;100.00
9521;BME280;4798;41.574;23.734;2023-05-20T03:10:41;95581.09;;;12.75;100.00
9521;BME280;4798;41.574;23.734;2023-05-20T03:13:09;95573.75;;;12.62;100.00
9521;BME280;4798;41.574;23.734;2023-05-20T03:15:37;95583.19;;;12.39;100.00
9521;BME280;4798;41.574;23.734;2023-05-20T03:18:06;95589.59;;;12.28;100.00
9521;BME280;4798;41.574;23.734;2023-05-20T03:20:35;95535.06;;;11.82;100.00
9521;BME280;4798;41.574;23.734;2023-05-20T03:23:05;95580.03;;;12.27;100.00
9521;BME280;4798;41.574;23.734;2023-05-20T03:25:34;95584.22;;;12.43;100.00
9521;BME280;4798;41.574;23.734;2023-05-20T03:28:03;95530.13;;;12.19;100.00
9521;BME280;4798;41.574;23.734;2023-05-20T03:30:32;95576.38;;;12.67;100.00
9521;BME280;4798;41.574;23.734;2023-05-20T03:33:01;95589.97;;;12.60;100.00
9521;BME280;4798;41.574;23.734;2023-05-20T03:35:31;95592.78;;;12.79;100.00
9521;BME280;4798;41.574;23.734;2023-05-20T03:38:00;95588.88;;;13.05;100.00
9521;BME280;4798;41.574;23.734;2023-05-20T03:40:30;95585.56;;;13.23;100.00
9521;BME280;4798;41.574;23.734;2023-05-20T03:42:58;95586.28;;;13.34;100.00
9521;BME280;4798;41.574;23.734;2023-05-20T03:45:27;95588.88;;;13.39;100.00
9521;BME280;4798;41.574;23.734;2023-05-20T03:47:55;95543.91;;;13.09;100.00
9521;BME280;4798;41.574;23.734;2023-05-20T03:50:23;95599.41;;;13.54;100.00
9521;BME280;4798;41.574;23.734;2023-05-20T03:52:51;95605.19;;;13.61;100.00
9521;BME280;4798;41.574;23.734;2023-05-20T03:55:20;95593.66;;;13.42;100.00
9521;BME280;4798;41.574;23.734;2023-05-20T03:57:50;95596.34;;;13.71;100.00
9521;BME280;4798;41.574;23.734;2023-05-20T04:00:18;95600.28;;;13.45;100.00
9521;BME280;4798;41.574;23.734;2023-05-20T04:02:46;95603.06;;;12.91;100.00
9521;BME280;4798;41.574;23.734;2023-05-20T04:05:15;95587.72;;;13.21;100.00
9521;BME280;4798;41.574;23.734;2023-05-20T04:07:43;95593.56;;;13.52;100.00
9521;BME280;4798;41.574;23.734;2023-05-20T04:10:12;95591.13;;;13.84;100.00
9521;BME280;4798;41.574;23.734;2023-05-20T04:12:40;95593.06;;;14.02;100.00
9521;BME280;4798;41.574;23.734;2023-05-20T04:15:11;95593.75;;;14.13;100.00
9521;BME280;4798;41.574;23.734;2023-05-20T04:17:40;95583.28;;;14.17;100.00
9521;BME280;4798;41.574;23.734;2023-05-20T04:20:10;95590.94;;;14.23;100.00
9521;BME280;4798;41.574;23.734;2023-05-20T04:22:38;95598.22;;;14.18;100.00
9521;BME280;4798;41.574;23.734;2023-05-20T04:25:07;95593.22;;;14.35;100.00
9521;BME280;4798;41.574;23.734;2023-05-20T04:27:36;95582.59;;;14.30;100.00
9521;BME280;4798;41.574;23.734;2023-05-20T04:30:06;95590.56;;;14.35;100.00
9521;BME280;4798;41.574;23.734;2023-05-20T04:32:37;95592.81;;;14.23;100.00
9521;BME280;4798;41.574;23.734;2023-05-20T04:35:05;95591.19;;;14.27;100.00
9521;BME280;4798;41.574;23.734;2023-05-20T04:37:38;95596.22;;;14.28;100.00
9521;BME280;4798;41.574;23.734;2023-05-20T04:40:09;95597.75;;;14.11;100.00
9521;BME280;4798;41.574;23.734;2023-05-20T04:42:38;95592.16;;;14.36;100.00
9521;BME280;4798;41.574;23.734;2023-05-20T04:45:07;95595.97;;;14.25;100.00
9521;BME280;4798;41.574;23.734;2023-05-20T04:47:37;95595.47;;;14.23;100.00
9521;BME280;4798;41.574;23.734;2023-05-20T04:50:06;95607.97;;;14.04;100.00
9521;BME280;4798;41.574;23.734;2023-05-20T04:52:36;95607.78;;;13.95;100.00
9521;BME280;4798;41.574;23.734;2023-05-20T04:55:06;95607.94;;;13.80;100.00
9521;BME280;4798;41.574;23.734;2023-05-20T04:57:35;95600.16;;;13.88;100.00
9521;BME280;4798;41.574;23.734;2023-05-20T05:00:06;95584.50;;;14.29;100.00
9521;BME280;4798;41.574;23.734;2023-05-20T05:02:37;95524.44;;;13.89;100.00
9521;BME280;4798;41.574;23.734;2023-05-20T05:05:06;95589.53;;;14.07;100.00
9521;BME280;4798;41.574;23.734;2023-05-20T05:07:35;95597.16;;;14.19;100.00
9521;BME280;4798;41.574;23.734;2023-05-20T05:10:03;95592.81;;;13.47;100.00
9521;BME280;4798;41.574;23.734;2023-05-20T05:12:32;95594.75;;;13.02;100.00
9521;BME280;4798;41.574;23.734;2023-05-20T05:15:00;95598.59;;;12.86;100.00
9521;BME280;4798;41.574;23.734;2023-05-20T05:17:29;95604.16;;;12.90;100.00
9521;BME280;4798;41.574;23.734;2023-05-20T05:19:58;95592.50;;;13.53;100.00
9521;BME280;4798;41.574;23.734;2023-05-20T05:22:27;95592.91;;;13.65;100.00
9521;BME280;4798;41.574;23.734;2023-05-20T05:24:55;95527.09;;;13.42;100.00
9521;BME280;4798;41.574;23.734;2023-05-20T05:27:24;95573.09;;;14.00;100.00
9521;BME280;4798;41.574;23.734;2023-05-20T05:29:53;95585.28;;;13.82;100.00
9521;BME280;4798;41.574;23.734;2023-05-20T05:32:21;95578.13;;;14.68;100.00
9521;BME280;4798;41.574;23.734;2023-05-20T05:34:50;95583.19;;;14.69;100.00
9521;BME280;4798;41.574;23.734;2023-05-20T05:37:19;95596.38;;;14.42;100.00
9521;BME280;4798;41.574;23.734;2023-05-20T05:39:48;95582.09;;;14.04;100.00
9521;BME280;4798;41.574;23.734;2023-05-20T05:42:16;95577.28;;;14.72;100.00
9521;BME280;4798;41.574;23.734;2023-05-20T05:44:44;95569.19;;;15.28;100.00
9521;BME280;4798;41.574;23.734;2023-05-20T05:47:13;95580.72;;;15.42;100.00
9521;BME280;4798;41.574;23.734;2023-05-20T05:49:41;95574.22;;;15.80;100.00
9521;BME280;4798;41.574;23.734;2023-05-20T05:52:10;95569.34;;;16.37;100.00
9521;BME280;4798;41.574;23.734;2023-05-20T05:54:39;95535.53;;;16.55;96.28
9521;BME280;4798;41.574;23.734;2023-05-20T05:57:08;95560.41;;;16.69;91.86
9521;BME280;4798;41.574;23.734;2023-05-20T05:59:38;95544.59;;;16.81;90.25
9521;BME280;4798;41.574;23.734;2023-05-20T06:02:06;95564.09;;;16.45;90.77
9521;BME280;4798;41.574;23.734;2023-05-20T06:04:36;95568.56;;;16.09;94.33
9521;BME280;4798;41.574;23.734;2023-05-20T06:07:04;95561.00;;;15.57;96.26
9521;BME280;4798;41.574;23.734;2023-05-20T06:09:32;95554.59;;;16.26;95.97
9521;BME280;4798;41.574;23.734;2023-05-20T06:12:03;95565.91;;;16.36;94.13
9521;BME280;4798;41.574;23.734;2023-05-20T06:14:31;95556.34;;;16.58;92.46
9521;BME280;4798;41.574;23.734;2023-05-20T06:17:00;95557.63;;;16.74;91.17
9521;BME280;4798;41.574;23.734;2023-05-20T06:19:28;95553.34;;;17.53;88.15
9521;BME280;4798;41.574;23.734;2023-05-20T06:21:57;95557.47;;;17.14;84.04
9521;BME280;4798;41.574;23.734;2023-05-20T06:24:25;95554.50;;;18.00;82.89
9521;BME280;4798;41.574;23.734;2023-05-20T06:26:53;95553.44;;;18.49;82.11
9521;BME280;4798;41.574;23.734;2023-05-20T06:29:23;95553.69;;;17.91;77.91
9521;BME280;4798;41.574;23.734;2023-05-20T06:31:52;95550.28;;;18.55;78.82
9521;BME280;4798;41.574;23.734;2023-05-20T06:34:20;95544.31;;;18.84;77.14
9521;BME280;4798;41.574;23.734;2023-05-20T06:36:48;95535.25;;;19.66;75.18
9521;BME280;4798;41.574;23.734;2023-05-20T06:39:17;95540.28;;;19.67;74.15
9521;BME280;4798;41.574;23.734;2023-05-20T06:41:45;95532.84;;;19.73;73.98
9521;BME280;4798;41.574;23.734;2023-05-20T06:44:13;95526.41;;;20.03;73.83
9521;BME280;4798;41.574;23.734;2023-05-20T06:46:43;95529.03;;;19.74;70.07
9521;BME280;4798;41.574;23.734;2023-05-20T06:49:12;95518.84;;;20.55;71.12
9521;BME280;4798;41.574;23.734;2023-05-20T06:51:40;95511.19;;;20.65;68.72
9521;BME280;4798;41.574;23.734;2023-05-20T06:54:09;95504.38;;;21.09;65.98
9521;BME280;4798;41.574;23.734;2023-05-20T06:56:38;95499.59;;;21.60;65.40
9521;BME280;4798;41.574;23.734;2023-05-20T06:59:06;95490.50;;;21.76;64.24
9521;BME280;4798;41.574;23.734;2023-05-20T07:01:35;95490.03;;;21.62;62.91
9521;BME280;4798;41.574;23.734;2023-05-20T07:04:05;95490.81;;;21.63;61.77
9521;BME280;4798;41.574;23.734;2023-05-20T07:06:33;95483.25;;;22.13;60.17
9521;BME280;4798;41.574;23.734;2023-05-20T07:09:02;95458.25;;;22.28;59.65
9521;BME280;4798;41.574;23.734;2023-05-20T07:11:31;95474.69;;;22.35;59.52
9521;BME280;4798;41.574;23.734;2023-05-20T07:13:59;95408.97;;;22.31;59.92
9521;BME280;4798;41.574;23.734;2023-05-20T07:16:27;95457.78;;;22.90;62.04
9521;BME280;4798;41.574;23.734;2023-05-20T07:18:58;95463.72;;;22.56;59.68
9521;BME280;4798;41.574;23.734;2023-05-20T07:21:27;95461.91;;;21.51;61.78
9521;BME280;4798;41.574;23.734;2023-05-20T07:23:56;95475.31;;;21.60;64.55
9521;BME280;4798;41.574;23.734;2023-05-20T07:26:24;95463.75;;;21.26;62.76
9521;BME280;4798;41.574;23.734;2023-05-20T07:28:52;95466.41;;;21.47;64.21
9521;BME280;4798;41.574;23.734;2023-05-20T07:31:21;95460.50;;;21.78;64.23
9521;BME280;4798;41.574;23.734;2023-05-20T07:33:50;95457.50;;;22.16;64.38
9521;BME280;4798;41.574;23.734;2023-05-20T07:36:18;95449.69;;;21.78;62.13
9521;BME280;4798;41.574;23.734;2023-05-20T07:38:48;95447.59;;;22.59;61.57
9521;BME280;4798;41.574;23.734;2023-05-20T07:41:30;95454.19;;;22.46;61.37
9521;BME280;4798;41.574;23.734;2023-05-20T07:43:58;95453.00;;;22.07;62.04
9521;BME280;4798;41.574;23.734;2023-05-20T07:46:26;95448.25;;;23.08;60.61
9521;BME280;4798;41.574;23.734;2023-05-20T07:48:55;95436.25;;;23.49;57.63
9521;BME280;4798;41.574;23.734;2023-05-20T07:51:23;95437.31;;;23.60;58.97
9521;BME280;4798;41.574;23.734;2023-05-20T07:53:53;95428.56;;;23.82;56.93
9521;BME280;4798;41.574;23.734;2023-05-20T07:56:21;95432.88;;;24.34;59.61
9521;BME280;4798;41.574;23.734;2023-05-20T07:58:54;95417.28;;;24.46;58.80
9521;BME280;4798;41.574;23.734;2023-05-20T08:01:24;95420.59;;;24.21;54.93
9521;BME280;4798;41.574;23.734;2023-05-20T08:03:53;95426.63;;;24.49;54.85
9521;BME280;4798;41.574;23.734;2023-05-20T08:06:21;95425.75;;;24.99;53.98
9521;BME280;4798;41.574;23.734;2023-05-20T08:08:56;95424.84;;;24.22;56.15
9521;BME280;4798;41.574;23.734;2023-05-20T08:11:25;95424.06;;;24.75;53.56
9521;BME280;4798;41.574;23.734;2023-05-20T08:13:53;95428.34;;;24.57;55.95
9521;BME280;4798;41.574;23.734;2023-05-20T08:16:24;95425.75;;;23.94;55.81
9521;BME280;4798;41.574;23.734;2023-05-20T08:18:52;95425.50;;;23.37;56.81
9521;BME280;4798;41.574;23.734;2023-05-20T08:21:21;95421.59;;;22.95;58.55
9521;BME280;4798;41.574;23.734;2023-05-20T08:23:49;95415.56;;;23.88;56.10
9521;BME280;4798;41.574;23.734;2023-05-20T08:26:19;95410.94;;;23.73;56.93
9521;BME280;4798;41.574;23.734;2023-05-20T08:28:47;95408.06;;;23.50;55.59
9521;BME280;4798;41.574;23.734;2023-05-20T08:31:16;95409.06;;;23.30;56.55
9521;BME280;4798;41.574;23.734;2023-05-20T08:33:44;95397.47;;;23.92;56.04
9521;BME280;4798;41.574;23.734;2023-05-20T08:36:13;95387.97;;;23.51;56.62
9521;BME280;4798;41.574;23.734;2023-05-20T08:38:42;95400.78;;;24.90;55.72
9521;BME280;4798;41.574;23.734;2023-05-20T08:41:10;95390.03;;;26.07;53.80
9521;BME280;4798;41.574;23.734;2023-05-20T08:43:40;95383.53;;;25.88;53.57
9521;BME280;4798;41.574;23.734;2023-05-20T08:46:09;95379.50;;;25.79;53.98
9521;BME280;4798;41.574;23.734;2023-05-20T08:48:38;95379.56;;;26.09;51.11
9521;BME280;4798;41.574;23.734;2023-05-20T08:51:08;95385.19;;;26.45;49.98
9521;BME280;4798;41.574;23.734;2023-05-20T08:53:37;95391.28;;;26.98;48.92
9521;BME280;4798;41.574;23.734;2023-05-20T08:56:06;95343.13;;;26.69;48.77
9521;BME280;4798;41.574;23.734;2023-05-20T08:58:35;95389.00;;;26.41;48.30
9521;BME280;4798;41.574;23.734;2023-05-20T09:01:05;95381.63;;;25.89;50.18
9521;BME280;4798;41.574;23.734;2023-05-20T09:03:34;95385.06;;;24.60;50.41
9521;BME280;4798;41.574;23.734;2023-05-20T09:06:03;95374.69;;;24.28;51.75
9521;BME280;4798;41.574;23.734;2023-05-20T09:08:32;95375.50;;;25.05;48.92
9521;BME280;4798;41.574;23.734;2023-05-20T09:11:01;95365.97;;;25.56;48.28
9521;BME280;4798;41.574;23.734;2023-05-20T09:13:30;95360.94;;;26.33;46.80
9521;BME280;4798;41.574;23.734;2023-05-20T09:16:00;95348.25;;;24.59;48.92
9521;BME280;4798;41.574;23.734;2023-05-20T09:18:30;95364.31;;;24.87;49.10
9521;BME280;4798;41.574;23.734;2023-05-20T09:21:03;95365.75;;;25.23;48.29
9521;BME280;4798;41.574;23.734;2023-05-20T09:23:35;95367.50;;;25.12;48.25
9521;BME280;4798;41.574;23.734;2023-05-20T09:26:04;95370.06;;;24.28;49.81
9521;BME280;4798;41.574;23.734;2023-05-20T09:28:32;95372.78;;;24.47;50.48
9521;BME280;4798;41.574;23.734;2023-05-20T09:31:04;95367.66;;;24.42;50.96
9521;BME280;4798;41.574;23.734;2023-05-20T09:33:36;95368.25;;;24.01;48.31
9521;BME280;4798;41.574;23.734;2023-05-20T09:36:06;95357.66;;;23.77;48.58
9521;BME280;4798;41.574;23.734;2023-05-20T09:38:36;95355.25;;;23.56;48.97
9521;BME280;4798;41.574;23.734;2023-05-20T09:41:06;95345.84;;;23.50;47.36
9521;BME280;4798;41.574;23.734;2023-05-20T09:43:35;95348.19;;;23.52;47.56
9521;BME280;4798;41.574;23.734;2023-05-20T09:46:04;95338.03;;;24.15;46.89
9521;BME280;4798;41.574;23.734;2023-05-20T09:48:34;95322.38;;;24.81;47.88
9521;BME280;4798;41.574;23.734;2023-05-20T09:51:03;95302.25;;;24.82;45.25
9521;BME280;4798;41.574;23.734;2023-05-20T09:53:33;95318.50;;;24.82;45.54
9521;BME280;4798;41.574;23.734;2023-05-20T09:56:02;95300.53;;;24.55;44.90
9521;BME280;4798;41.574;23.734;2023-05-20T09:58:32;95317.66;;;24.40;44.75
9521;BME280;4798;41.574;23.734;2023-05-20T10:01:01;95309.09;;;24.57;44.35
9521;BME280;4798;41.574;23.734;2023-05-20T10:03:29;95303.94;;;24.90;43.63
9521;BME280;4798;41.574;23.734;2023-05-20T10:06:36;95311.84;;;25.67;43.67
9521;BME280;4798;41.574;23.734;2023-05-20T10:09:20;95299.22;;;25.52;42.21
9521;BME280;4798;41.574;23.734;2023-05-20T10:11:58;95302.53;;;25.68;41.34
9521;BME280;4798;41.574;23.734;2023-05-20T10:14:40;95276.91;;;25.16;40.29
9521;BME280;4798;41.574;23.734;2023-05-20T10:17:16;95293.63;;;25.67;42.65
9521;BME280;4798;41.574;23.734;2023-05-20T10:19:48;95285.81;;;26.52;41.30
9521;BME280;4798;41.574;23.734;2023-05-20T10:22:27;95285.28;;;25.79;38.67
9521;BME280;4798;41.574;23.734;2023-05-20T10:24:59;95281.00;;;25.07;39.07
9521;BME280;4798;41.574;23.734;2023-05-20T10:27:28;95278.28;;;25.30;39.62
9521;BME280;4798;41.574;23.734;2023-05-20T10:29:56;95274.59;;;25.18;39.15
9521;BME280;4798;41.574;23.734;2023-05-20T10:32:26;95275.88;;;24.79;39.01
9521;BME280;4798;41.574;23.734;2023-05-20T10:34:58;95280.03;;;24.54;39.03
9521;BME280;4798;41.574;23.734;2023-05-20T10:37:31;95271.66;;;25.50;39.10
9521;BME280;4798;41.574;23.734;2023-05-20T10:40:05;95269.03;;;25.57;39.12
9521;BME280;4798;41.574;23.734;2023-05-20T10:42:34;95262.56;;;25.16;39.59
9521;BME280;4798;41.574;23.734;2023-05-20T10:45:03;95259.84;;;25.65;38.96
9521;BME280;4798;41.574;23.734;2023-05-20T10:47:32;95229.63;;;25.17;39.58
9521;BME280;4798;41.574;23.734;2023-05-20T10:50:01;95246.22;;;25.61;38.46
9521;BME280;4798;41.574;23.734;2023-05-20T10:52:35;95242.44;;;25.17;41.37
9521;BME280;4798;41.574;23.734;2023-05-20T10:55:04;95259.78;;;24.90;38.58
9521;BME280;4798;41.574;23.734;2023-05-20T10:57:33;95255.06;;;24.64;37.86
9521;BME280;4798;41.574;23.734;2023-05-20T11:00:03;95258.56;;;24.87;39.39
9521;BME280;4798;41.574;23.734;2023-05-20T11:02:33;95254.19;;;24.79;39.01
9521;BME280;4798;41.574;23.734;2023-05-20T11:05:02;95244.56;;;24.62;39.42
9521;BME280;4798;41.574;23.734;2023-05-20T11:07:33;95243.66;;;25.46;38.95
9521;BME280;4798;41.574;23.734;2023-05-20T11:10:07;95240.47;;;26.96;37.07
9521;BME280;4798;41.574;23.734;2023-05-20T11:12:35;95215.75;;;28.49;35.76
9521;BME280;4798;41.574;23.734;2023-05-20T11:15:04;95213.50;;;29.78;33.78
9521;BME280;4798;41.574;23.734;2023-05-20T11:17:34;95216.56;;;29.97;32.42
9521;BME280;4798;41.574;23.734;2023-05-20T11:20:02;95209.38;;;30.46;31.14
9521;BME280;4798;41.574;23.734;2023-05-20T11:22:32;95209.47;;;31.41;29.96
9521;BME280;4798;41.574;23.734;2023-05-20T11:25:04;95213.03;;;30.91;30.28
9521;BME280;4798;41.574;23.734;2023-05-20T11:27:33;95206.44;;;30.77;29.60
9521;BME280;4798;41.574;23.734;2023-05-20T11:30:01;95207.81;;;31.07;30.27
9521;BME280;4798;41.574;23.734;2023-05-20T11:32:31;95208.22;;;30.33;31.33
9521;BME280;4798;41.574;23.734;2023-05-20T11:35:00;95104.69;;;28.17;34.05
9521;BME280;4798;41.574;23.734;2023-05-20T11:37:28;95222.31;;;27.58;34.31
9521;BME280;4798;41.574;23.734;2023-05-20T11:40:05;95218.47;;;27.12;33.47
9521;BME280;4798;41.574;23.734;2023-05-20T11:42:36;95216.59;;;28.70;32.46
9521;BME280;4798;41.574;23.734;2023-05-20T11:45:05;95223.47;;;27.06;33.98
9521;BME280;4798;41.574;23.734;2023-05-20T11:47:34;95229.25;;;26.64;35.76
9521;BME280;4798;41.574;23.734;2023-05-20T11:50:02;95220.91;;;27.82;35.80
9521;BME280;4798;41.574;23.734;2023-05-20T11:52:32;95202.06;;;27.52;35.11
9521;BME280;4798;41.574;23.734;2023-05-20T11:55:01;95143.28;;;27.44;35.39
9521;BME280;4798;41.574;23.734;2023-05-20T11:57:31;95214.03;;;26.93;35.64
9521;BME280;4798;41.574;23.734;2023-05-20T11:59:59;95210.19;;;25.94;36.82
9521;BME280;4798;41.574;23.734;2023-05-20T12:02:28;95206.44;;;25.72;38.47
9521;BME280;4798;41.574;23.734;2023-05-20T12:04:56;95205.78;;;25.82;38.80
9521;BME280;4798;41.574;23.734;2023-05-20T12:07:25;95212.47;;;26.18;38.20
9521;BME280;4798;41.574;23.734;2023-05-20T12:09:54;95208.38;;;25.72;38.41
9521;BME280;4798;41.574;23.734;2023-05-20T12:12:22;95202.56;;;26.36;38.19
9521;BME280;4798;41.574;23.734;2023-05-20T12:14:53;95194.31;;;27.61;38.02
9521;BME280;4798;41.574;23.734;2023-05-20T12:17:21;95190.09;;;26.72;36.83
9521;BME280;4798;41.574;23.734;2023-05-20T12:19:49;95184.41;;;26.81;36.75
9521;BME280;4798;41.574;23.734;2023-05-20T12:22:18;95181.75;;;27.39;34.08
9521;BME280;4798;41.574;23.734;2023-05-20T12:24:49;95179.72;;;27.97;34.13
9521;BME280;4798;41.574;23.734;2023-05-20T12:27:20;95177.25;;;28.96;32.07
9521;BME280;4798;41.574;23.734;2023-05-20T12:29:49;95137.47;;;29.16;32.12
9521;BME280;4798;41.574;23.734;2023-05-20T12:32:19;95157.56;;;30.10;31.45
9521;BME280;4798;41.574;23.734;2023-05-20T12:34:47;95171.56;;;28.01;33.67
9521;BME280;4798;41.574;23.734;2023-05-20T12:37:16;95178.88;;;26.74;35.66
9521;BME280;4798;41.574;23.734;2023-05-20T12:39:44;95178.22;;;26.87;34.41
9521;BME280;4798;41.574;23.734;2023-05-20T12:42:12;95176.69;;;26.49;36.10
9521;BME280;4798;41.574;23.734;2023-05-20T12:44:41;95180.81;;;26.36;35.87
9521;BME280;4798;41.574;23.734;2023-05-20T12:47:09;95171.47;;;26.71;36.68
9521;BME280;4798;41.574;23.734;2023-05-20T12:49:39;95152.31;;;26.20;34.80
9521;BME280;4798;41.574;23.734;2023-05-20T12:52:07;95164.09;;;26.01;35.41
9521;BME280;4798;41.574;23.734;2023-05-20T12:54:47;95165.53;;;26.58;36.27
9521;BME280;4798;41.574;23.734;2023-05-20T12:57:16;95159.84;;;26.74;35.98
9521;BME280;4798;41.574;23.734;2023-05-20T12:59:45;95151.72;;;26.37;36.06
9521;BME280;4798;41.574;23.734;2023-05-20T13:02:13;95138.19;;;26.07;37.33
9521;BME280;4798;41.574;23.734;2023-05-20T13:04:43;95154.00;;;25.65;38.16
9521;BME280;4798;41.574;23.734;2023-05-20T13:07:12;95156.00;;;26.05;39.44
9521;BME280;4798;41.574;23.734;2023-05-20T13:09:40;95150.78;;;25.89;39.17
9521;BME280;4798;41.574;23.734;2023-05-20T13:12:09;95161.84;;;26.07;37.67
9521;BME280;4798;41.574;23.734;2023-05-20T13:14:37;95164.06;;;25.64;38.90
9521;BME280;4798;41.574;23.734;2023-05-20T13:17:05;95170.06;;;24.98;39.06
9521;BME280;4798;41.574;23.734;2023-05-20T13:19:34;95168.13;;;24.76;40.37